Epic Capri — 9HA2845 — position and weather

sailwx.info

Track history (hours):
 
Tides and Currents Weather Stations Pressure Air Temp Water Temp Dewpoint Dewpoint Depression Visibility Wind Speed Wind Dir Waves Ship Positions

Epic Capri

Last reported at 2015-Apr-21 18:33 UTC. Time now 2015-Apr-21 18:59 UTC.
Position N 37°54' W 008°52'.

Length 99 m; draft 5.4 m.

Type: Tanker. MMSI: 256325000.

Date/timePositionNaut miles runAvg speedWind from/ knotsBaromVisibWave heightAir tempDewpointWater temp
2015-Apr-21 18:33N 37°54' W 008°52'0 0.0
2015-Apr-21 17:33N 37°54' W 008°52'0 0.0
2015-Apr-21 16:33N 37°54' W 008°52'0 0.0
2015-Apr-21 15:33N 37°54' W 008°52'0 0.0
2015-Apr-21 14:33N 37°54' W 008°52'0 0.0
2015-Apr-21 13:33N 37°54' W 008°52'0 0.0
2015-Apr-21 12:33N 37°54' W 008°52'0 0.0
2015-Apr-21 11:33N 37°54' W 008°52'0 0.1
2015-Apr-21 10:33N 37°55' W 008°52'7 6.8
2015-Apr-21 09:33N 37°59' W 008°58'10 9.9
2015-Apr-21 08:33N 38°03' W 009°10'1010.0
2015-Apr-21 07:33N 38°07' W 009°22'1310.0
2015-Apr-21 06:13N 38°13' W 009°37'17 9.8
2015-Apr-21 04:31N 38°18' W 009°57'32 9.4
2015-Apr-21 01:10N 38°47' W 010°12'810.4
2015-Apr-21 00:24N 38°55' W 010°12'9 9.7
2015-Apr-20 23:28N 39°04' W 010°10'910.3
2015-Apr-20 22:34N 39°12' W 010°04'  
2015-Apr-13 02:17N 37°20' W 009°46'7 9.8
2015-Apr-13 01:32N 37°25' W 009°39'1010.1
2015-Apr-13 00:33N 37°31' W 009°29'10 9.8
2015-Apr-12 23:31N 37°37' W 009°19'9 9.8
2015-Apr-12 22:33N 37°44' W 009°10'10 9.8
2015-Apr-12 21:32N 37°50' W 009°00'9 8.8
2015-Apr-12 20:33N 37°57' W 008°53'0 0.4
2015-Apr-12 19:33N 37°57' W 008°53'0 0.0
2015-Apr-12 18:30N 37°57' W 008°53'0 0.0
2015-Apr-12 17:33N 37°57' W 008°53'0 0.0
2015-Apr-12 16:33N 37°57' W 008°53'0 0.0
2015-Apr-12 15:33N 37°57' W 008°53'0 0.0
2015-Apr-12 14:33N 37°57' W 008°53'0 0.0
2015-Apr-12 13:33N 37°57' W 008°53'0 0.0
2015-Apr-12 12:33N 37°57' W 008°53'0 0.0
2015-Apr-12 11:33N 37°57' W 008°53'0 0.0
2015-Apr-12 10:33N 37°57' W 008°53'0 0.0
2015-Apr-12 09:30N 37°57' W 008°53'0 0.0
2015-Apr-12 08:33N 37°57' W 008°53'0 0.0
2015-Apr-12 07:33N 37°57' W 008°53'0 0.0
2015-Apr-12 06:33N 37°57' W 008°53'0 0.0
2015-Apr-12 05:33N 37°57' W 008°53'2 2.4
2015-Apr-12 04:33N 37°55' W 008°55'9 8.8
2015-Apr-12 03:33N 37°53' W 009°06'10 9.7
2015-Apr-12 02:33N 37°53' W 009°18'10 9.6
2015-Apr-12 01:33N 37°52' W 009°30'9 9.4
2015-Apr-12 00:32N 37°52' W 009°42'9 8.6
2015-Apr-11 23:29N 37°51' W 009°53'8 8.8
2015-Apr-11 22:33N 37°52' W 010°04'9 8.6
2015-Apr-11 21:33N 37°52' W 010°14'  
Track history (hours):
 
Tides and Currents Weather Stations Pressure Air Temp Water Temp Dewpoint Dewpoint Depression Visibility Wind Speed Wind Dir Waves Ship Positions

Epic Capri

Last reported at 2015-Apr-21 18:33 UTC. Time now 2015-Apr-21 18:59 UTC.
Position N 37°54' W 008°52'.

Length 99 m; draft 5.4 m.

Type: Tanker. MMSI: 256325000.

Date/timePositionNaut miles runAvg speedWind from/ knotsBaromVisibWave heightAir tempDewpointWater temp
2015-Apr-21 18:33N 37°54' W 008°52'0 0.0
2015-Apr-21 17:33N 37°54' W 008°52'0 0.0
2015-Apr-21 16:33N 37°54' W 008°52'0 0.0
2015-Apr-21 15:33N 37°54' W 008°52'0 0.0
2015-Apr-21 14:33N 37°54' W 008°52'0 0.0
2015-Apr-21 13:33N 37°54' W 008°52'0 0.0
2015-Apr-21 12:33N 37°54' W 008°52'0 0.0
2015-Apr-21 11:33N 37°54' W 008°52'0 0.1
2015-Apr-21 10:33N 37°55' W 008°52'7 6.8
2015-Apr-21 09:33N 37°59' W 008°58'10 9.9
2015-Apr-21 08:33N 38°03' W 009°10'1010.0
2015-Apr-21 07:33N 38°07' W 009°22'1310.0
2015-Apr-21 06:13N 38°13' W 009°37'17 9.8
2015-Apr-21 04:31N 38°18' W 009°57'32 9.4
2015-Apr-21 01:10N 38°47' W 010°12'810.4
2015-Apr-21 00:24N 38°55' W 010°12'9 9.7
2015-Apr-20 23:28N 39°04' W 010°10'910.3
2015-Apr-20 22:34N 39°12' W 010°04'  
2015-Apr-13 02:17N 37°20' W 009°46'7 9.8
2015-Apr-13 01:32N 37°25' W 009°39'1010.1
2015-Apr-13 00:33N 37°31' W 009°29'10 9.8
2015-Apr-12 23:31N 37°37' W 009°19'9 9.8
2015-Apr-12 22:33N 37°44' W 009°10'10 9.8
2015-Apr-12 21:32N 37°50' W 009°00'9 8.8
2015-Apr-12 20:33N 37°57' W 008°53'0 0.4
2015-Apr-12 19:33N 37°57' W 008°53'0 0.0
2015-Apr-12 18:30N 37°57' W 008°53'0 0.0
2015-Apr-12 17:33N 37°57' W 008°53'0 0.0
2015-Apr-12 16:33N 37°57' W 008°53'0 0.0
2015-Apr-12 15:33N 37°57' W 008°53'0 0.0
2015-Apr-12 14:33N 37°57' W 008°53'0 0.0
2015-Apr-12 13:33N 37°57' W 008°53'0 0.0
2015-Apr-12 12:33N 37°57' W 008°53'0 0.0
2015-Apr-12 11:33N 37°57' W 008°53'0 0.0
2015-Apr-12 10:33N 37°57' W 008°53'0 0.0
2015-Apr-12 09:30N 37°57' W 008°53'0 0.0
2015-Apr-12 08:33N 37°57' W 008°53'0 0.0
2015-Apr-12 07:33N 37°57' W 008°53'0 0.0
2015-Apr-12 06:33N 37°57' W 008°53'0 0.0
2015-Apr-12 05:33N 37°57' W 008°53'2 2.4
2015-Apr-12 04:33N 37°55' W 008°55'9 8.8
2015-Apr-12 03:33N 37°53' W 009°06'10 9.7
2015-Apr-12 02:33N 37°53' W 009°18'10 9.6
2015-Apr-12 01:33N 37°52' W 009°30'9 9.4
2015-Apr-12 00:32N 37°52' W 009°42'9 8.6
2015-Apr-11 23:29N 37°51' W 009°53'8 8.8
2015-Apr-11 22:33N 37°52' W 010°04'9 8.6
2015-Apr-11 21:33N 37°52' W 010°14'  

Dump ship's entire track history